Time;durP1;ratioP1;P1;durP2;ratioP2;P2;SDS_P1;SDS_P2;PMS_P1;PMS_P2;Temp;Humidity;BMP_temperature;BMP_pressure;BME280_temperature;BME280_humidity;BME280_pressure;Samples;Min_cycle;Max_cycle;Signal;HPM_P1;HPM_P2
2023/12/12 00:00:24;;;;;;;17.00;5.47;;;9.50;99.90;;;;;;5031240;28;20186;-69
2023/12/12 00:02:50;;;;;;;12.73;4.93;;;9.50;99.90;;;;;;5030901;28;20218;-68
2023/12/12 00:05:15;;;;;;;9.73;5.23;;;9.50;99.90;;;;;;5031155;28;20643;-69
2023/12/12 00:07:41;;;;;;;13.60;5.60;;;9.50;99.90;;;;;;5031084;28;20273;-69
2023/12/12 00:10:07;;;;;;;13.43;5.37;;;9.40;99.90;;;;;;5031600;28;20179;-69
2023/12/12 00:12:33;;;;;;;12.00;5.47;;;9.50;99.90;;;;;;5030840;28;20180;-69
2023/12/12 00:14:59;;;;;;;24.37;6.33;;;9.40;99.90;;;;;;5030841;28;20553;-69
2023/12/12 00:17:24;;;;;;;12.17;5.17;;;9.40;99.90;;;;;;5031171;28;20258;-70
2023/12/12 00:19:50;;;;;;;20.63;6.57;;;9.40;99.90;;;;;;5030830;28;20671;-69
2023/12/12 00:22:15;;;;;;;12.27;5.57;;;9.40;99.90;;;;;;5030861;28;20182;-69
2023/12/12 00:24:41;;;;;;;13.10;5.50;;;9.40;99.90;;;;;;5030960;28;20286;-68
2023/12/12 00:27:07;;;;;;;14.70;6.13;;;9.40;99.90;;;;;;5031032;28;20290;-69
2023/12/12 00:29:35;;;;;;;16.30;5.53;;;9.30;99.90;;;;;;5032553;28;20546;-69
2023/12/12 00:32:02;;;;;;;14.70;6.40;;;9.30;99.90;;;;;;5034733;28;20675;-69
2023/12/12 00:34:28;;;;;;;15.20;5.83;;;9.20;99.90;;;;;;5034885;28;20192;-69
2023/12/12 00:36:53;;;;;;;21.57;6.67;;;9.20;99.90;;;;;;5035022;28;20186;-69
2023/12/12 00:39:19;;;;;;;17.70;5.43;;;9.20;99.90;;;;;;5035027;28;20180;-69
2023/12/12 00:41:44;;;;;;;13.07;5.70;;;9.10;99.90;;;;;;5034641;28;20183;-69
2023/12/12 00:44:10;;;;;;;13.33;5.27;;;9.10;99.90;;;;;;5034448;28;20237;-69
2023/12/12 00:46:35;;;;;;;20.60;7.10;;;9.10;99.90;;;;;;5034682;28;20243;-69
2023/12/12 00:49:01;;;;;;;15.63;5.90;;;9.10;99.90;;;;;;5034966;28;20254;-69
2023/12/12 00:51:27;;;;;;;17.37;5.73;;;9.00;99.90;;;;;;5034529;28;20237;-69
2023/12/12 00:53:52;;;;;;;12.40;5.03;;;9.10;99.90;;;;;;5034309;28;20253;-69
2023/12/12 00:56:18;;;;;;;17.57;6.23;;;9.00;99.90;;;;;;5034540;28;20650;-68
2023/12/12 00:58:43;;;;;;;10.13;5.37;;;9.00;99.90;;;;;;5034539;28;20202;-68
2023/12/12 01:01:11;;;;;;;13.67;5.17;;;8.90;99.90;;;;;;5033958;28;20669;-69
2023/12/12 01:03:37;;;;;;;12.00;5.73;;;8.90;99.90;;;;;;5034222;28;20195;-69
2023/12/12 01:06:03;;;;;;;23.27;6.07;;;8.90;99.90;;;;;;5034308;28;20199;-70
2023/12/12 01:08:29;;;;;;;15.53;5.73;;;8.90;99.90;;;;;;5034464;28;20171;-69
2023/12/12 01:10:54;;;;;;;10.83;5.30;;;8.80;99.90;;;;;;5034049;28;20249;-69
2023/12/12 01:13:20;;;;;;;22.93;6.33;;;8.80;99.90;;;;;;5034401;28;20211;-70
2023/12/12 01:15:45;;;;;;;13.07;5.73;;;8.70;99.90;;;;;;5034153;28;20741;-69
2023/12/12 01:18:11;;;;;;;17.83;5.57;;;8.70;99.90;;;;;;5034236;28;20172;-69
2023/12/12 01:20:36;;;;;;;12.20;5.13;;;8.70;99.90;;;;;;5034578;28;20523;-69
2023/12/12 01:23:02;;;;;;;9.57;5.83;;;8.70;99.90;;;;;;5033922;28;20187;-69
2023/12/12 01:25:29;;;;;;;13.83;5.67;;;8.50;99.90;;;;;;5033415;28;20186;-70
2023/12/12 01:27:55;;;;;;;13.20;4.93;;;8.40;99.90;;;;;;5034011;28;20682;-68
2023/12/12 01:30:20;;;;;;;14.87;5.13;;;8.30;99.90;;;;;;5033927;28;20237;-69
2023/12/12 01:32:46;;;;;;;19.70;5.23;;;8.30;99.90;;;;;;5033910;28;20182;-69
2023/12/12 01:35:11;;;;;;;16.93;6.03;;;8.20;99.90;;;;;;5033839;28;20172;-69
2023/12/12 01:37:37;;;;;;;14.97;5.67;;;8.10;99.90;;;;;;5033798;28;20179;-69
2023/12/12 01:40:04;;;;;;;10.70;5.80;;;8.20;99.90;;;;;;5032762;28;20246;-68
2023/12/12 01:42:30;;;;;;;16.20;5.80;;;8.10;99.90;;;;;;5033012;28;20253;-69
2023/12/12 01:44:56;;;;;;;17.47;5.67;;;8.00;99.90;;;;;;5033810;28;20200;-69
2023/12/12 01:47:21;;;;;;;17.10;6.03;;;8.00;99.90;;;;;;5033629;28;20684;-68
2023/12/12 01:49:48;;;;;;;12.77;5.33;;;8.00;99.90;;;;;;5032447;28;20179;-69
2023/12/12 01:52:14;;;;;;;23.97;5.87;;;8.00;99.90;;;;;;5032145;28;20637;-68
2023/12/12 01:54:44;;;;;;;9.63;6.40;;;8.00;99.90;;;;;;5032635;28;20192;-69
2023/12/12 01:57:12;;;;;;;14.60;5.57;;;8.00;99.90;;;;;;5032978;28;20262;-69
2023/12/12 01:59:38;;;;;;;14.73;5.97;;;8.00;99.90;;;;;;5033268;28;20207;-69
2023/12/12 02:02:04;;;;;;;18.10;5.50;;;8.00;99.90;;;;;;5033069;28;20662;-69
2023/12/12 02:04:30;;;;;;;11.33;5.57;;;8.00;99.90;;;;;;5033165;28;20283;-69
2023/12/12 02:06:57;;;;;;;16.93;6.20;;;8.00;99.90;;;;;;5032848;28;20207;-69
2023/12/12 02:09:23;;;;;;;20.47;6.13;;;8.00;99.90;;;;;;5033829;28;20171;-69
2023/12/12 02:11:49;;;;;;;16.57;7.00;;;8.00;99.90;;;;;;5033990;28;20200;-70
2023/12/12 02:14:15;;;;;;;13.93;5.70;;;8.00;99.90;;;;;;5034134;28;20580;-69
2023/12/12 02:16:40;;;;;;;15.93;5.83;;;8.10;99.90;;;;;;5033163;28;20262;-69
2023/12/12 02:19:06;;;;;;;18.20;6.53;;;8.10;99.90;;;;;;5033149;28;20172;-68
2023/12/12 02:21:31;;;;;;;18.40;6.10;;;8.20;99.90;;;;;;5032890;28;20186;-69
2023/12/12 02:23:57;;;;;;;18.83;5.90;;;8.10;99.90;;;;;;5032563;28;20192;-69
2023/12/12 02:26:23;;;;;;;16.57;5.90;;;8.10;99.90;;;;;;5032883;28;20223;-69
2023/12/12 02:28:48;;;;;;;17.90;5.73;;;8.00;99.90;;;;;;5032965;28;20178;-69
2023/12/12 02:31:15;;;;;;;17.37;6.37;;;8.10;99.90;;;;;;5032875;28;20635;-69
2023/12/12 02:33:41;;;;;;;13.17;5.70;;;8.10;99.90;;;;;;5032387;28;20222;-69
2023/12/12 02:36:07;;;;;;;9.73;5.87;;;8.10;99.90;;;;;;5032598;28;20207;-68
2023/12/12 02:38:32;;;;;;;17.07;5.20;;;8.00;99.90;;;;;;5032754;28;20175;-69
2023/12/12 02:40:58;;;;;;;16.03;5.57;;;8.00;99.90;;;;;;5032404;28;20187;-68
2023/12/12 02:43:23;;;;;;;16.00;5.60;;;8.10;99.90;;;;;;5032228;28;20203;-69
2023/12/12 02:45:49;;;;;;;12.27;5.60;;;8.00;99.90;;;;;;5032487;28;20337;-69
2023/12/12 02:48:16;;;;;;;13.73;5.27;;;8.00;99.90;;;;;;5032489;28;20278;-69
2023/12/12 02:50:42;;;;;;;11.77;5.30;;;7.90;99.90;;;;;;5032369;28;20229;-69
2023/12/12 02:53:07;;;;;;;17.10;5.50;;;7.90;99.90;;;;;;5031781;28;20607;-69
2023/12/12 02:55:33;;;;;;;16.77;5.23;;;7.90;99.90;;;;;;5032355;28;20708;-68
2023/12/12 02:57:58;;;;;;;24.47;6.77;;;7.90;99.90;;;;;;5032231;28;20202;-68
2023/12/12 03:00:24;;;;;;;22.43;5.90;;;7.90;99.90;;;;;;5032307;28;20183;-69
2023/12/12 03:02:49;;;;;;;20.23;6.43;;;8.00;99.90;;;;;;5031478;28;20179;-69
2023/12/12 03:05:15;;;;;;;25.20;8.40;;;8.10;99.90;;;;;;5032371;28;20186;-69
2023/12/12 03:07:41;;;;;;;15.03;6.73;;;8.20;99.90;;;;;;5032048;28;20207;-69
2023/12/12 03:10:07;;;;;;;18.67;6.50;;;8.30;99.90;;;;;;5031797;28;20531;-68
2023/12/12 03:12:32;;;;;;;21.40;7.40;;;8.40;99.90;;;;;;5031949;28;20172;-69
2023/12/12 03:14:58;;;;;;;22.90;8.07;;;8.50;99.90;;;;;;5031839;28;20198;-70
2023/12/12 03:17:23;;;;;;;29.10;8.47;;;8.50;99.90;;;;;;5031874;28;20713;-69
2023/12/12 03:19:50;;;;;;;26.00;8.10;;;8.50;99.90;;;;;;5031479;28;20185;-70
2023/12/12 03:22:15;;;;;;;20.93;7.90;;;8.50;99.90;;;;;;5031632;28;20175;-70
2023/12/12 03:24:41;;;;;;;21.60;9.07;;;8.50;99.90;;;;;;5031485;28;20290;-69
2023/12/12 03:27:08;;;;;;;24.47;9.53;;;8.50;99.90;;;;;;5031606;28;20195;-69
2023/12/12 03:29:34;;;;;;;20.63;7.90;;;8.60;99.90;;;;;;5031615;28;20671;-69
2023/12/12 03:32:00;;;;;;;20.63;8.13;;;8.60;99.90;;;;;;5030891;28;20249;-69
2023/12/12 03:34:26;;;;;;;27.23;7.33;;;8.60;99.90;;;;;;5031834;28;20198;-69
2023/12/12 03:36:51;;;;;;;18.47;7.07;;;8.70;99.90;;;;;;5031764;28;20171;-69
2023/12/12 03:39:17;;;;;;;16.83;6.60;;;8.60;99.90;;;;;;5031479;28;20531;-69
2023/12/12 03:41:43;;;;;;;21.00;7.20;;;8.60;99.90;;;;;;5031048;28;20229;-69
2023/12/12 03:44:09;;;;;;;12.40;6.17;;;8.60;99.90;;;;;;5031027;28;20199;-69
2023/12/12 03:46:34;;;;;;;18.80;6.47;;;8.50;99.90;;;;;;5031378;28;20218;-69
2023/12/12 03:49:00;;;;;;;14.77;6.53;;;8.40;99.90;;;;;;5031276;28;20168;-69
2023/12/12 03:51:26;;;;;;;19.83;7.63;;;8.30;99.90;;;;;;5031351;28;20198;-69
2023/12/12 03:53:52;;;;;;;17.83;6.67;;;8.20;99.90;;;;;;5030935;28;20191;-69
2023/12/12 03:56:17;;;;;;;25.63;8.33;;;8.10;99.90;;;;;;5031281;28;20184;-70
2023/12/12 03:58:43;;;;;;;22.30;7.03;;;8.10;99.90;;;;;;5031289;28;20577;-69
2023/12/12 04:01:08;;;;;;;19.57;7.17;;;8.10;99.90;;;;;;5031504;28;20229;-69
2023/12/12 04:03:34;;;;;;;12.23;5.87;;;8.10;99.90;;;;;;5030523;28;20195;-69
2023/12/12 04:06:03;;;;;;;23.83;6.63;;;8.00;99.90;;;;;;5031296;28;20194;-69
2023/12/12 04:08:29;;;;;;;15.80;6.27;;;8.00;99.90;;;;;;5031480;28;20168;-69
2023/12/12 04:10:54;;;;;;;21.57;7.27;;;8.00;99.90;;;;;;5031313;28;20189;-69
2023/12/12 04:13:20;;;;;;;24.10;9.07;;;8.00;99.90;;;;;;5030899;28;20219;-69
2023/12/12 04:15:45;;;;;;;17.03;6.93;;;8.00;99.90;;;;;;5031326;28;20175;-69
2023/12/12 04:18:11;;;;;;;17.47;6.20;;;8.00;99.90;;;;;;5031443;28;20258;-70
2023/12/12 04:20:36;;;;;;;16.40;6.20;;;8.00;99.90;;;;;;5031306;28;20245;-69
2023/12/12 04:23:02;;;;;;;18.97;5.73;;;8.00;99.90;;;;;;5030910;28;20278;-70
2023/12/12 04:25:28;;;;;;;10.17;5.37;;;8.00;99.90;;;;;;5031124;28;20217;-69
2023/12/12 04:27:53;;;;;;;22.47;7.27;;;8.00;99.90;;;;;;5031262;28;20541;-69
2023/12/12 04:30:19;;;;;;;16.03;5.67;;;8.00;99.90;;;;;;5030025;28;20195;-69
2023/12/12 04:32:44;;;;;;;23.40;6.70;;;8.00;99.90;;;;;;5030876;28;20160;-70
2023/12/12 04:35:10;;;;;;;16.47;6.10;;;8.00;99.90;;;;;;5031016;28;20182;-69
2023/12/12 04:37:36;;;;;;;17.83;6.60;;;8.00;99.90;;;;;;5031259;28;20224;-69
2023/12/12 04:40:02;;;;;;;15.17;5.87;;;8.10;99.90;;;;;;5030964;28;20273;-69
2023/12/12 04:42:27;;;;;;;13.67;5.07;;;8.10;99.90;;;;;;5030980;28;20246;-69
2023/12/12 04:44:53;;;;;;;18.70;6.37;;;8.10;99.90;;;;;;5031182;28;20713;-70
2023/12/12 04:47:19;;;;;;;16.87;6.13;;;8.10;99.90;;;;;;5031074;28;20257;-69
2023/12/12 04:49:44;;;;;;;11.47;5.77;;;8.10;99.90;;;;;;5030828;28;20176;-70
2023/12/12 04:52:10;;;;;;;22.27;6.60;;;8.20;99.90;;;;;;5030839;28;20659;-69
2023/12/12 04:54:36;;;;;;;12.33;6.03;;;8.20;99.90;;;;;;5030868;28;20203;-69
2023/12/12 04:57:01;;;;;;;21.07;5.90;;;8.20;99.90;;;;;;5032185;28;20198;-69
2023/12/12 04:59:27;;;;;;;16.27;5.90;;;8.20;99.90;;;;;;5031447;28;20558;-69
2023/12/12 05:01:52;;;;;;;11.20;6.50;;;8.20;99.90;;;;;;5029226;28;20207;-70
2023/12/12 05:04:18;;;;;;;20.23;6.90;;;8.10;99.90;;;;;;5031113;28;20364;-69
2023/12/12 05:06:44;;;;;;;17.53;6.57;;;8.00;99.90;;;;;;5030797;28;20659;-69
2023/12/12 05:09:09;;;;;;;17.97;6.80;;;8.00;99.90;;;;;;5031137;28;20175;-69
2023/12/12 05:11:36;;;;;;;15.67;6.13;;;7.90;99.90;;;;;;5031173;28;20176;-69
2023/12/12 05:14:04;;;;;;;15.93;6.13;;;7.90;99.90;;;;;;5030159;28;20196;-69
2023/12/12 05:16:30;;;;;;;15.93;6.90;;;7.80;99.90;;;;;;5033787;28;20183;-69
2023/12/12 05:18:56;;;;;;;14.00;5.87;;;7.80;99.90;;;;;;5034321;28;20560;-69
2023/12/12 05:21:21;;;;;;;13.43;6.30;;;7.70;99.90;;;;;;5034455;28;20186;-70
2023/12/12 05:23:50;;;;;;;13.77;6.23;;;7.70;99.90;;;;;;5033955;28;20202;-70
2023/12/12 05:26:18;;;;;;;12.90;5.93;;;7.80;99.90;;;;;;5034291;28;20678;-70
2023/12/12 05:28:46;;;;;;;17.80;5.90;;;7.80;99.90;;;;;;5034127;28;20174;-70
2023/12/12 05:31:12;;;;;;;17.90;5.87;;;7.70;99.90;;;;;;5033961;28;20726;-69
2023/12/12 05:33:38;;;;;;;15.70;5.77;;;7.80;99.90;;;;;;5033838;28;20207;-70
2023/12/12 05:36:04;;;;;;;14.53;6.33;;;7.80;99.90;;;;;;5033401;28;20179;-69
2023/12/12 05:38:30;;;;;;;14.27;6.10;;;7.90;99.90;;;;;;5032689;28;20175;-69
2023/12/12 05:40:56;;;;;;;16.00;5.67;;;7.90;99.90;;;;;;5034211;28;20180;-69
2023/12/12 05:43:22;;;;;;;14.17;5.37;;;8.00;99.90;;;;;;5033675;28;20605;-71
2023/12/12 05:45:47;;;;;;;13.07;5.77;;;7.90;99.90;;;;;;5033762;28;20167;-69
2023/12/12 05:48:13;;;;;;;13.33;5.83;;;8.00;99.90;;;;;;5033422;28;20203;-70
2023/12/12 05:50:39;;;;;;;20.97;6.07;;;8.00;99.90;;;;;;5033691;28;20242;-69
2023/12/12 05:53:04;;;;;;;12.33;6.80;;;8.10;99.90;;;;;;5033247;28;20724;-70
2023/12/12 05:55:30;;;;;;;15.30;5.60;;;8.10;99.90;;;;;;5033718;28;20508;-70
2023/12/12 05:57:56;;;;;;;18.77;6.67;;;8.10;99.90;;;;;;5033445;28;20230;-69
2023/12/12 06:00:21;;;;;;;18.00;6.93;;;8.10;99.90;;;;;;5033438;28;20247;-69
2023/12/12 06:02:48;;;;;;;18.63;5.77;;;8.20;99.90;;;;;;5032963;28;20175;-70
2023/12/12 06:05:13;;;;;;;16.57;6.00;;;8.30;99.90;;;;;;5033401;28;20211;-69
2023/12/12 06:07:41;;;;;;;16.87;6.33;;;8.20;99.90;;;;;;5035521;28;20705;-69
2023/12/12 06:10:11;;;;;;;16.30;6.27;;;8.20;99.90;;;;;;5033207;28;20194;-69
2023/12/12 06:12:36;;;;;;;13.77;6.10;;;8.20;99.90;;;;;;5032875;28;20644;-69
2023/12/12 06:15:02;;;;;;;15.83;6.10;;;8.10;99.90;;;;;;5033321;28;20258;-69
2023/12/12 06:17:28;;;;;;;14.27;5.80;;;8.10;99.90;;;;;;5033571;28;20223;-70
2023/12/12 06:19:54;;;;;;;17.47;6.13;;;8.20;99.90;;;;;;5034039;28;20210;-69
2023/12/12 06:22:19;;;;;;;13.87;6.27;;;8.20;99.90;;;;;;5033390;28;20179;-69
2023/12/12 06:24:45;;;;;;;13.03;6.00;;;8.30;99.90;;;;;;5032964;28;20192;-70
2023/12/12 06:27:12;;;;;;;17.20;6.53;;;8.20;99.90;;;;;;5031952;28;20666;-70
2023/12/12 06:29:38;;;;;;;15.77;6.47;;;8.30;99.90;;;;;;5031716;28;20182;-69
2023/12/12 06:32:04;;;;;;;16.50;6.60;;;8.30;99.90;;;;;;5032318;28;20184;-69
2023/12/12 06:34:29;;;;;;;11.13;5.70;;;8.30;99.90;;;;;;5032916;28;20196;-69
2023/12/12 06:36:55;;;;;;;9.53;5.83;;;8.30;99.90;;;;;;5032964;28;20172;-69
2023/12/12 06:39:21;;;;;;;15.67;6.20;;;8.40;99.90;;;;;;5032897;28;20251;-70
2023/12/12 06:41:46;;;;;;;20.27;6.43;;;8.40;99.90;;;;;;5032747;28;20179;-69
2023/12/12 06:44:12;;;;;;;12.07;6.40;;;8.40;99.90;;;;;;5032181;28;20211;-69
2023/12/12 06:46:39;;;;;;;18.83;6.33;;;8.40;99.90;;;;;;5032646;28;20199;-70
2023/12/12 06:49:06;;;;;;;25.10;7.20;;;8.40;99.90;;;;;;5032683;28;20237;-69
2023/12/12 06:51:32;;;;;;;20.53;6.20;;;8.40;99.90;;;;;;5032615;28;20174;-70
2023/12/12 06:53:58;;;;;;;16.40;6.40;;;8.40;99.90;;;;;;5032192;28;20659;-69
2023/12/12 06:56:25;;;;;;;19.03;6.33;;;8.50;99.90;;;;;;5032327;28;20728;-70
2023/12/12 06:58:50;;;;;;;22.13;6.87;;;8.50;99.90;;;;;;5032988;28;20167;-70
2023/12/12 07:01:16;;;;;;;16.47;6.27;;;8.50;99.90;;;;;;5032820;28;20182;-70
2023/12/12 07:03:41;;;;;;;16.73;6.50;;;8.50;99.90;;;;;;5032277;28;20191;-70
2023/12/12 07:06:08;;;;;;;14.50;6.60;;;8.50;99.90;;;;;;5032253;28;20175;-70
2023/12/12 07:08:34;;;;;;;14.30;5.67;;;8.50;99.90;;;;;;5032417;28;20207;-70
2023/12/12 07:11:00;;;;;;;15.70;6.03;;;8.50;99.90;;;;;;5032044;28;20616;-71
2023/12/12 07:13:27;;;;;;;10.90;5.70;;;8.50;99.90;;;;;;5032159;28;20203;-69
2023/12/12 07:15:52;;;;;;;19.03;6.40;;;8.60;99.90;;;;;;5035847;28;20168;-70
2023/12/12 07:18:18;;;;;;;21.13;6.10;;;8.60;99.90;;;;;;5030354;28;20259;-69
2023/12/12 07:20:44;;;;;;;17.53;6.20;;;8.60;99.90;;;;;;5032068;28;20241;-70
2023/12/12 07:23:10;;;;;;;17.63;6.30;;;8.60;99.90;;;;;;5031579;28;20230;-70
2023/12/12 07:25:36;;;;;;;15.97;6.43;;;8.60;99.90;;;;;;5031269;28;20674;-70
2023/12/12 07:28:02;;;;;;;11.87;5.90;;;8.60;99.90;;;;;;5031588;28;20603;-70
2023/12/12 07:30:27;;;;;;;16.60;6.07;;;8.60;99.90;;;;;;5031490;28;20226;-70
2023/12/12 07:32:54;;;;;;;14.30;5.90;;;8.60;99.90;;;;;;5031549;28;20274;-70
2023/12/12 07:35:20;;;;;;;15.00;6.20;;;8.60;99.90;;;;;;5031554;28;20168;-70
2023/12/12 07:37:46;;;;;;;17.93;6.23;;;8.60;99.90;;;;;;5031399;28;20667;-70
2023/12/12 07:40:11;;;;;;;10.30;5.77;;;8.60;99.90;;;;;;5031499;28;20176;-70
2023/12/12 07:42:37;;;;;;;14.73;5.73;;;8.70;99.90;;;;;;5032269;28;20176;-69
2023/12/12 07:45:03;;;;;;;16.43;6.13;;;8.70;99.90;;;;;;5031512;28;20248;-70
2023/12/12 07:47:29;;;;;;;16.67;6.17;;;8.70;99.90;;;;;;5031398;28;20195;-69
2023/12/12 07:49:55;;;;;;;18.10;6.03;;;8.70;99.90;;;;;;5031157;28;20194;-70
2023/12/12 07:52:21;;;;;;;18.63;6.00;;;8.70;99.90;;;;;;5030148;28;20180;-70
2023/12/12 07:54:47;;;;;;;19.97;5.67;;;8.70;99.90;;;;;;5030092;28;20218;-69
2023/12/12 07:57:12;;;;;;;12.23;6.07;;;8.70;99.90;;;;;;5029538;28;20546;-70
2023/12/12 07:59:38;;;;;;;16.23;5.77;;;8.80;99.90;;;;;;5026702;28;20317;-70
2023/12/12 08:02:04;;;;;;;18.60;6.70;;;8.80;99.90;;;;;;5030592;28;20182;-70
2023/12/12 08:04:30;;;;;;;13.70;5.93;;;8.80;99.90;;;;;;5030404;28;20738;-69
2023/12/12 08:06:56;;;;;;;15.17;5.73;;;8.90;99.90;;;;;;5029647;28;20278;-70
2023/12/12 08:09:23;;;;;;;14.40;6.40;;;8.90;99.90;;;;;;5031340;28;20175;-70
2023/12/12 08:11:48;;;;;;;14.27;5.93;;;9.00;99.90;;;;;;5031168;28;20655;-70
2023/12/12 08:14:14;;;;;;;17.70;5.93;;;9.10;99.90;;;;;;5030820;28;20273;-69
2023/12/12 08:16:40;;;;;;;22.33;6.70;;;9.10;99.90;;;;;;5030037;28;20198;-70
2023/12/12 08:19:05;;;;;;;11.13;7.10;;;9.20;99.90;;;;;;5030796;28;20229;-70
2023/12/12 08:21:31;;;;;;;15.47;6.27;;;9.20;99.90;;;;;;5030746;28;20537;-70
2023/12/12 08:23:56;;;;;;;18.23;6.80;;;9.20;99.90;;;;;;5030983;28;20191;-70
2023/12/12 08:26:22;;;;;;;19.93;7.10;;;9.30;99.90;;;;;;5030868;28;20576;-70
2023/12/12 08:28:49;;;;;;;14.57;7.57;;;9.30;99.90;;;;;;5031025;28;20179;-70
2023/12/12 08:31:15;;;;;;;15.13;6.43;;;9.30;99.90;;;;;;5030877;28;20159;-70
2023/12/12 08:33:40;;;;;;;12.73;7.20;;;9.40;99.90;;;;;;5030994;28;20219;-69
2023/12/12 08:36:08;;;;;;;17.70;6.83;;;9.40;99.90;;;;;;5030710;28;20611;-70
2023/12/12 08:38:33;;;;;;;20.43;7.07;;;9.40;99.90;;;;;;5030878;28;20175;-70
2023/12/12 08:40:59;;;;;;;15.50;6.73;;;9.50;99.90;;;;;;5030876;28;20584;-70
2023/12/12 08:43:25;;;;;;;18.50;7.23;;;9.50;99.90;;;;;;5030737;28;20286;-69
2023/12/12 08:45:52;;;;;;;20.20;7.10;;;9.50;99.90;;;;;;5030863;28;20247;-69
2023/12/12 08:48:18;;;;;;;15.40;7.47;;;9.40;99.90;;;;;;5030652;28;20230;-70
2023/12/12 08:50:44;;;;;;;18.50;6.63;;;9.40;99.90;;;;;;5032956;28;20670;-69
2023/12/12 08:53:10;;;;;;;12.83;6.63;;;9.50;99.90;;;;;;5034434;28;20179;-69
2023/12/12 08:55:36;;;;;;;17.23;6.80;;;9.60;99.90;;;;;;5035017;28;20179;-70
2023/12/12 08:58:04;;;;;;;19.37;6.73;;;9.80;99.90;;;;;;5035002;28;20258;-70
2023/12/12 09:00:30;;;;;;;16.63;6.13;;;10.10;99.90;;;;;;5034926;28;20234;-70
2023/12/12 09:02:55;;;;;;;12.20;6.10;;;10.30;99.90;;;;;;5035901;28;20191;-70
2023/12/12 09:05:21;;;;;;;14.60;5.60;;;10.50;99.90;;;;;;5037234;28;20306;-70
2023/12/12 09:07:46;;;;;;;14.43;6.27;;;10.60;99.90;;;;;;5034890;28;20203;-70
2023/12/12 09:10:12;;;;;;;13.93;5.77;;;10.60;99.90;;;;;;5034318;28;20276;-70
2023/12/12 09:12:38;;;;;;;13.67;6.43;;;10.70;99.90;;;;;;5034267;28;20171;-70
2023/12/12 09:15:05;;;;;;;8.60;5.77;;;10.70;99.90;;;;;;5034640;28;20643;-69
2023/12/12 09:17:31;;;;;;;13.13;5.70;;;10.80;99.90;;;;;;5034434;28;20583;-69
2023/12/12 09:19:56;;;;;;;14.20;5.30;;;10.70;99.90;;;;;;5033902;28;20237;-69
2023/12/12 09:22:23;;;;;;;12.90;5.17;;;10.90;99.90;;;;;;5034193;28;20182;-69
2023/12/12 09:24:48;;;;;;;10.07;4.67;;;11.30;99.90;;;;;;5034046;28;20219;-69
2023/12/12 09:27:15;;;;;;;10.30;4.87;;;11.60;99.90;;;;;;5034043;28;20239;-69
2023/12/12 09:29:42;;;;;;;10.43;5.07;;;11.60;99.90;;;;;;5034252;28;20172;-69
2023/12/12 09:32:07;;;;;;;12.20;5.20;;;11.70;99.90;;;;;;5033697;28;20536;-70
2023/12/12 09:34:33;;;;;;;8.17;5.03;;;11.80;99.90;;;;;;5033973;28;20196;-69
2023/12/12 09:36:58;;;;;;;12.37;4.70;;;12.10;99.90;;;;;;5034119;28;20176;-70
2023/12/12 09:39:24;;;;;;;10.40;5.23;;;12.10;99.90;;;;;;5033959;28;20175;-69
2023/12/12 09:41:52;;;;;;;14.10;5.10;;;12.10;99.90;;;;;;5033980;28;20284;-69
2023/12/12 09:44:19;;;;;;;14.27;5.30;;;12.00;99.90;;;;;;5033805;28;20194;-69
2023/12/12 09:46:46;;;;;;;11.53;5.60;;;11.90;99.90;;;;;;5033984;28;20202;-69
2023/12/12 09:49:13;;;;;;;13.17;5.20;;;11.80;99.90;;;;;;5033703;28;20167;-69
2023/12/12 09:51:41;;;;;;;9.33;4.97;;;11.60;99.90;;;;;;5033745;28;20545;-69
2023/12/12 09:54:07;;;;;;;10.40;5.10;;;11.50;99.90;;;;;;5033302;28;20227;-68
2023/12/12 09:56:37;;;;;;;12.83;5.30;;;11.30;99.90;;;;;;5033500;28;20186;-69
2023/12/12 09:59:04;;;;;;;11.77;4.87;;;11.20;99.90;;;;;;5033686;28;20179;-68
2023/12/12 10:01:34;;;;;;;11.73;5.17;;;11.10;99.90;;;;;;5032588;28;20199;-69
2023/12/12 10:04:05;;;;;;;14.63;5.33;;;11.00;99.90;;;;;;5033361;28;20222;-68
2023/12/12 10:06:35;;;;;;;14.47;5.60;;;10.90;99.90;;;;;;5033362;28;20546;-69
2023/12/12 10:09:00;;;;;;;10.13;5.03;;;10.90;99.90;;;;;;5033533;28;20172;-69
2023/12/12 10:11:26;;;;;;;12.67;5.20;;;11.00;99.90;;;;;;5033384;28;20707;-69
2023/12/12 10:13:58;;;;;;;10.60;5.40;;;11.00;99.90;;;;;;5033120;28;20203;-69
2023/12/12 10:16:25;;;;;;;13.90;5.83;;;11.00;1.00;;;;;;5033199;28;20171;-69
2023/12/12 10:18:52;;;;;;;7.97;5.27;;;11.10;1.00;;;;;;5033235;28;20168;-69
2023/12/12 10:21:20;;;;;;;11.93;5.47;;;11.10;1.00;;;;;;5032823;28;20258;-69
2023/12/12 10:23:47;;;;;;;10.30;5.13;;;11.20;99.90;;;;;;5033132;28;20200;-69
2023/12/12 10:26:24;;;;;;;16.13;5.77;;;11.20;99.90;;;;;;5033517;28;20182;-70
2023/12/12 10:28:50;;;;;;;16.90;6.10;;;11.30;99.90;;;;;;5033405;28;20587;-69
2023/12/12 10:31:18;;;;;;;16.50;5.70;;;11.20;99.90;;;;;;5032787;28;20172;-69
2023/12/12 10:33:44;;;;;;;12.27;5.77;;;11.30;99.90;;;;;;5032743;28;20578;-69
2023/12/12 10:36:10;;;;;;;11.53;6.07;;;11.30;99.90;;;;;;5032682;28;20172;-69
2023/12/12 10:38:38;;;;;;;8.20;6.00;;;11.30;99.90;;;;;;5032650;28;20171;-69
2023/12/12 10:41:24;;;;;;;16.90;6.33;;;11.30;99.90;;;;;;5032939;28;20182;-69
2023/12/12 10:43:50;;;;;;;12.40;6.10;;;11.20;99.90;;;;;;5032083;28;20733;-69
2023/12/12 10:46:19;;;;;;;12.27;6.17;;;11.10;99.90;;;;;;5032409;28;20178;-69
2023/12/12 10:48:49;;;;;;;12.83;5.87;;;11.10;99.90;;;;;;5032464;28;20194;-69
2023/12/12 10:51:20;;;;;;;15.53;7.53;;;10.90;99.90;;;;;;5019356;28;20163;-69
2023/12/12 10:53:47;;;;;;;10.90;5.90;;;10.90;1.00;;;;;;5032390;28;20647;-69
2023/12/12 10:56:14;;;;;;;16.93;6.43;;;10.80;1.00;;;;;;5032312;28;20175;-69
2023/12/12 10:58:42;;;;;;;11.20;5.87;;;10.60;1.00;;;;;;5032433;28;20178;-69
2023/12/12 11:01:13;;;;;;;11.03;5.63;;;10.50;99.90;;;;;;5032307;28;20171;-69
2023/12/12 11:03:40;;;;;;;10.87;5.60;;;10.40;92.30;;;;;;5031846;28;20249;-69
2023/12/12 11:06:07;;;;;;;12.77;5.93;;;10.20;99.90;;;;;;5032388;28;20683;-69
2023/12/12 11:08:33;;;;;;;10.93;6.90;;;10.20;1.00;;;;;;5032381;28;20199;-69
2023/12/12 11:11:14;;;;;;;13.53;6.63;;;10.10;1.00;;;;;;5032225;28;20585;-69
2023/12/12 11:13:42;;;;;;;12.47;6.20;;;10.00;26.30;;;;;;5031134;28;20688;-69
2023/12/12 11:16:09;;;;;;;14.47;6.73;;;9.90;99.90;;;;;;5032347;28;20635;-69
2023/12/12 11:18:39;;;;;;;12.30;6.20;;;9.70;99.90;;;;;;5032024;28;20175;-69
2023/12/12 11:21:05;;;;;;;15.00;6.23;;;9.70;99.90;;;;;;5032153;28;20167;-69
2023/12/12 11:23:46;;;;;;;13.80;6.60;;;9.70;99.90;;;;;;5031462;28;20573;-72
2023/12/12 11:26:15;;;;;;;18.20;6.37;;;9.70;99.90;;;;;;5012271;28;20195;-70
2023/12/12 11:28:42;;;;;;;13.00;5.87;;;9.60;99.90;;;;;;5027520;28;20195;-70
2023/12/12 11:31:08;;;;;;;10.87;6.07;;;9.60;99.90;;;;;;5031945;28;20171;-69
2023/12/12 11:34:12;;;;;;;14.87;6.20;;;9.50;99.90;;;;;;5031637;28;20195;-70
2023/12/12 11:36:49;;;;;;;13.83;6.83;;;9.50;99.90;;;;;;5009856;28;20198;-70
2023/12/12 11:39:22;;;;;;;12.37;6.03;;;9.30;99.90;;;;;;4992973;28;20701;-72
2023/12/12 11:41:47;;;;;;;12.03;7.03;;;9.40;99.90;;;;;;5023013;28;20202;-69
2023/12/12 11:44:17;;;;;;;11.33;7.13;;;9.40;99.90;;;;;;5030953;28;20291;-70
2023/12/12 11:46:42;;;;;;;13.67;7.70;;;9.40;99.90;;;;;;5032145;28;20207;-69
2023/12/12 11:49:19;;;;;;;18.70;9.07;;;9.50;99.90;;;;;;5032429;28;20179;-70
2023/12/12 11:51:46;;;;;;;18.17;8.93;;;9.70;99.90;;;;;;5031503;28;20180;-70
2023/12/12 11:54:24;;;;;;;17.67;8.77;;;9.90;99.90;;;;;;5031184;28;20195;-70
2023/12/12 11:56:57;;;;;;;16.73;9.40;;;10.00;99.90;;;;;;5031641;28;20252;-70
2023/12/12 11:59:24;;;;;;;15.60;8.60;;;10.00;99.90;;;;;;5031466;28;20179;-69
2023/12/12 12:01:50;;;;;;;23.23;10.37;;;10.10;99.90;;;;;;5031319;28;20175;-70
2023/12/12 12:04:16;;;;;;;17.57;9.80;;;10.20;99.90;;;;;;5031143;28;20207;-70
2023/12/12 12:06:43;;;;;;;16.30;8.90;;;10.20;99.90;;;;;;5031368;28;20744;-70
2023/12/12 12:09:09;;;;;;;22.10;9.53;;;10.20;99.90;;;;;;5031528;28;20178;-70
2023/12/12 12:11:39;;;;;;;17.50;8.67;;;10.20;99.90;;;;;;5031804;28;20203;-69
2023/12/12 12:14:05;;;;;;;21.03;8.70;;;10.30;99.90;;;;;;5031015;28;20203;-70
2023/12/12 12:16:31;;;;;;;17.40;8.73;;;10.20;99.90;;;;;;5031134;28;20190;-69
2023/12/12 12:18:57;;;;;;;14.80;8.43;;;10.20;99.90;;;;;;5030861;28;20187;-70
2023/12/12 12:21:26;;;;;;;15.13;9.33;;;10.00;99.90;;;;;;5030395;28;20175;-71
2023/12/12 12:23:52;;;;;;;16.60;8.57;;;9.90;99.90;;;;;;5030514;28;20203;-71
2023/12/12 12:26:19;;;;;;;11.50;8.67;;;9.90;99.90;;;;;;5030187;28;20322;-71
2023/12/12 12:28:44;;;;;;;15.87;8.93;;;9.90;99.90;;;;;;5031554;28;20225;-71
2023/12/12 12:31:10;;;;;;;15.07;9.03;;;9.90;99.90;;;;;;5031420;28;20175;-70
2023/12/12 12:33:37;;;;;;;15.13;8.90;;;9.90;99.90;;;;;;5030956;28;20192;-70
2023/12/12 12:36:04;;;;;;;13.23;8.90;;;9.80;99.90;;;;;;5030951;28;20191;-70
2023/12/12 12:38:33;;;;;;;25.03;9.37;;;9.70;99.90;;;;;;5030129;28;20183;-70
2023/12/12 12:40:59;;;;;;;18.87;9.97;;;9.70;99.90;;;;;;5031324;28;20183;-72